Artesian, Iowa
Current Conditions -  °F | °C
As of 8:54 PM on Friday 21 Nov 2014 (Local Time) from KALO Reporting Station
Overcast Overcast  
Wind Chill: 25°   Ceiling: 2000
Heat Index: 32°   Visibility: 10mi
Dew Point: 23°   Wind: 8mph
Humidity: 69%   Direction: 170°S
Pressure: 30.08"   Gusts: NA
Location:  42.787°N, 92.4284°W
Report Text: KALO 220254Z 17007KT 10SM OVC020 00/M05 A3008 RMK AO2 SLP198 T00001050 56015
Loading
Personal Weather Stations






























Interactive Weather Map New forecast layout! Learn more

10-Day Weather Forecast

Advertisements
Track Severe Weather on mobile